createdAt,value
2022-08-23T00:00:13.156Z,98284.88
2022-08-23T00:05:47.737Z,98278.24
2022-08-23T00:12:06.241Z,98281.66
2022-08-23T00:17:55.640Z,98287.29
2022-08-23T00:23:41.646Z,98282.64
2022-08-23T00:30:35.679Z,98284.64
2022-08-23T00:36:33.974Z,98295.71
2022-08-23T00:42:40.048Z,98302.98
2022-08-23T00:48:37.727Z,98301.84
2022-08-23T00:54:48.220Z,98302.67
2022-08-23T01:00:23.416Z,98290.36
2022-08-23T01:06:13.294Z,98301.83
2022-08-23T01:12:05.566Z,98311.73
2022-08-23T01:18:06.649Z,98315.05
2022-08-23T01:24:05.255Z,98318.75
2022-08-23T01:29:34.513Z,98316.56
2022-08-23T01:35:07.943Z,98321.30
2022-08-23T01:40:47.179Z,98320.42
2022-08-23T01:46:54.996Z,98325.38
2022-08-23T01:52:19.666Z,98330.45
2022-08-23T01:57:59.156Z,98335.03
2022-08-23T02:03:46.668Z,98330.58
2022-08-23T02:09:17.877Z,98329.96
2022-08-23T02:14:51.176Z,98325.22
2022-08-23T02:20:47.037Z,98327.18
2022-08-23T02:26:13.517Z,98321.95
2022-08-23T02:31:46.380Z,98322.38
2022-08-23T02:37:17.759Z,98325.19
2022-08-23T02:42:47.444Z,98328.89
2022-08-23T02:48:17.686Z,98343.45
2022-08-23T02:53:59.516Z,98345.73
2022-08-23T02:59:50.667Z,98352.80
2022-08-23T03:05:45.111Z,98348.42
2022-08-23T03:11:25.285Z,98349.44
2022-08-23T03:17:00.363Z,98343.60
2022-08-23T03:22:26.793Z,98337.60
2022-08-23T03:28:01.546Z,98345.09
2022-08-23T03:33:57.745Z,98348.90
2022-08-23T03:39:47.719Z,98348.04
2022-08-23T03:45:44.332Z,98352.56
2022-08-23T03:51:42.039Z,98362.73
2022-08-23T03:57:30.147Z,98363.14
2022-08-23T04:03:40.324Z,98367.04
2022-08-23T04:10:03.353Z,98366.36
2022-08-23T04:16:10.170Z,98376.66
2022-08-23T04:22:41.542Z,98377.11
2022-08-23T04:29:11.669Z,98371.14
2022-08-23T04:35:53.230Z,98378.27
2022-08-23T04:42:26.751Z,98381.04
2022-08-23T04:49:09.268Z,98385.88
2022-08-23T04:55:16.764Z,98395.27
2022-08-23T05:01:16.377Z,98400.10
2022-08-23T05:06:57.840Z,98407.14
2022-08-23T05:12:28.307Z,98410.83
2022-08-23T05:17:52.462Z,98407.80
2022-08-23T05:23:40.776Z,98410.64
2022-08-23T05:29:26.587Z,98415.79
2022-08-23T05:35:33.524Z,98422.13
2022-08-23T05:41:07.055Z,98422.15
2022-08-23T05:47:24.685Z,98422.19
2022-08-23T05:53:01.841Z,98426.09
2022-08-23T05:58:44.464Z,98429.11
2022-08-23T06:04:18.212Z,98431.27
2022-08-23T06:09:44.275Z,98436.02
2022-08-23T06:15:18.683Z,98447.41
2022-08-23T06:21:16.843Z,98446.20
2022-08-23T06:26:42.751Z,98443.25
2022-08-23T06:32:09.472Z,98443.90
2022-08-23T06:37:39.440Z,98446.80
2022-08-23T06:43:13.749Z,98452.61
2022-08-23T06:49:05.690Z,98456.68
2022-08-23T06:55:20.577Z,98452.52
2022-08-23T07:01:54.755Z,98458.02
2022-08-23T07:08:16.631Z,98461.11
2022-08-23T07:13:55.331Z,98469.17
2022-08-23T07:19:49.373Z,98466.89
2022-08-23T07:25:29.584Z,98470.38
2022-08-23T07:31:27.796Z,98477.68
2022-08-23T07:36:54.526Z,98482.13
2022-08-23T07:42:23.412Z,98482.06
2022-08-23T07:47:37.502Z,98480.30
2022-08-23T07:52:54.544Z,98484.05
2022-08-23T07:58:36.109Z,98492.04
2022-08-23T08:04:10.181Z,98494.20
2022-08-23T08:09:21.244Z,98503.52
2022-08-23T08:14:55.826Z,98509.01
2022-08-23T08:20:31.008Z,98506.23
2022-08-23T08:26:37.363Z,98516.77
2022-08-23T08:31:54.018Z,98525.62
2022-08-23T08:37:03.870Z,98526.53
2022-08-23T08:42:47.699Z,98532.45
2022-08-23T08:48:15.768Z,98535.67
2022-08-23T08:53:42.331Z,98536.08
2022-08-23T09:00:08.344Z,98534.70
2022-08-23T09:05:31.932Z,98540.39
2022-08-23T09:11:12.467Z,98549.09
2022-08-23T09:17:00.018Z,98562.51
2022-08-23T09:23:06.077Z,98565.71
2022-08-23T09:28:31.844Z,98573.66
2022-08-23T09:33:54.250Z,98572.19
2022-08-23T09:39:51.740Z,98579.06
2022-08-23T09:45:02.138Z,98587.03
2022-08-23T09:50:25.391Z,98585.28
2022-08-23T09:56:04.342Z,98584.66
2022-08-23T10:01:40.110Z,98583.33
2022-08-23T10:07:33.059Z,98588.79
2022-08-23T10:12:50.416Z,98593.27
2022-08-23T10:18:52.440Z,98588.39
2022-08-23T10:24:38.884Z,98593.84
2022-08-23T10:30:05.546Z,98598.58
2022-08-23T10:35:41.114Z,98598.95
2022-08-23T10:41:31.428Z,98602.48
2022-08-23T10:46:44.985Z,98607.17
2022-08-23T10:52:16.871Z,98611.77
2022-08-23T10:57:36.378Z,98609.98
2022-08-23T11:03:18.033Z,98615.84
2022-08-23T11:08:47.911Z,98617.10
2022-08-23T11:14:12.890Z,98618.77
2022-08-23T11:19:59.338Z,98621.81
2022-08-23T11:25:43.559Z,98620.81
2022-08-23T11:31:36.530Z,98623.41
2022-08-23T11:37:42.222Z,98630.63
2022-08-23T11:43:26.625Z,98633.77
2022-08-23T11:48:46.639Z,98636.73
2022-08-23T11:54:33.682Z,98634.45
2022-08-23T12:00:46.911Z,98636.06
2022-08-23T12:06:12.561Z,98637.56
2022-08-23T12:11:48.698Z,98639.66
2022-08-23T12:17:34.009Z,98645.23
2022-08-23T12:23:24.405Z,98648.84
2022-08-23T12:29:06.487Z,98649.83
2022-08-23T12:35:26.987Z,98653.09
2022-08-23T12:40:43.752Z,98651.59
2022-08-23T12:46:18.825Z,98652.30
2022-08-23T12:51:29.637Z,98651.47
2022-08-23T12:57:00.303Z,98652.90
2022-08-23T13:02:32.311Z,98663.81
2022-08-23T13:07:43.501Z,98659.68
2022-08-23T13:12:55.672Z,98663.39
2022-08-23T13:18:06.915Z,98656.23
2022-08-23T13:23:17.570Z,98656.81
2022-08-23T13:28:27.311Z,98658.69
2022-08-23T13:33:40.948Z,98665.07
2022-08-23T13:39:05.171Z,98663.52
2022-08-23T13:44:37.226Z,98660.83
2022-08-23T13:49:49.703Z,98658.10
2022-08-23T13:54:56.080Z,98653.75
2022-08-23T14:00:06.934Z,98648.77
2022-08-23T14:05:23.257Z,98649.05
2022-08-23T14:10:41.095Z,98642.47
2022-08-23T14:21:29.650Z,98634.58
2022-08-23T14:26:36.559Z,98634.20
2022-08-23T14:31:46.153Z,98638.52
2022-08-23T14:42:31.864Z,98649.55
2022-08-23T14:47:41.736Z,98642.36
2022-08-23T14:52:51.737Z,98648.23
2022-08-23T14:58:04.530Z,98646.36
2022-08-23T15:03:22.768Z,98646.91
2022-08-23T15:08:43.617Z,98645.51
2022-08-23T15:13:55.525Z,98643.74
2022-08-23T15:19:02.676Z,98647.73
2022-08-23T15:24:14.243Z,98645.90
2022-08-23T15:29:26.830Z,98657.73
2022-08-23T15:34:59.264Z,98668.95
2022-08-23T15:40:25.932Z,98669.55
2022-08-23T15:45:41.849Z,98681.50
2022-08-23T15:50:58.337Z,98689.42
2022-08-23T15:56:11.093Z,98691.18
2022-08-23T16:01:45.146Z,98700.86
2022-08-23T16:07:10.468Z,98702.13
2022-08-23T16:12:18.687Z,98703.20
2022-08-23T16:18:07.676Z,98698.77
2022-08-23T16:23:33.816Z,98703.08
2022-08-23T16:29:36.026Z,98702.10
2022-08-23T16:35:00.230Z,98709.64
2022-08-23T16:40:24.743Z,98708.43
2022-08-23T16:46:18.347Z,98717.23
2022-08-23T16:51:26.397Z,98720.20
2022-08-23T16:56:42.457Z,98732.09
2022-08-23T17:01:51.797Z,98730.41
2022-08-23T17:07:16.569Z,98734.84
2022-08-23T17:12:22.582Z,98729.94
2022-08-23T17:17:51.081Z,98735.31
2022-08-23T17:23:06.138Z,98735.64
2022-08-23T17:28:32.435Z,98741.54
2022-08-23T17:33:43.502Z,98744.55
2022-08-23T17:39:24.539Z,98745.09
2022-08-23T17:44:42.662Z,98751.13
2022-08-23T17:49:51.432Z,98759.15
2022-08-23T17:55:02.257Z,98766.14
2022-08-23T18:00:21.269Z,98780.99
2022-08-23T18:05:40.796Z,98795.33
2022-08-23T18:10:54.807Z,98800.08
2022-08-23T18:16:21.210Z,98807.52
2022-08-23T18:21:53.537Z,98798.64
2022-08-23T18:27:21.344Z,98813.48
2022-08-23T18:32:49.116Z,98818.38
2022-08-23T18:38:06.667Z,98821.72
2022-08-23T18:43:37.184Z,98819.98
2022-08-23T18:48:56.362Z,98821.98
2022-08-23T18:54:02.742Z,98829.45
2022-08-23T18:59:17.750Z,98840.43
2022-08-23T19:04:20.728Z,98845.43
2022-08-23T19:09:41.137Z,98847.62
2022-08-23T19:14:43.279Z,98850.05
2022-08-23T19:19:45.528Z,98861.05
2022-08-23T19:24:56.428Z,98863.81
2022-08-23T19:30:09.115Z,98865.83
2022-08-23T19:35:37.309Z,98867.91
2022-08-23T19:40:52.866Z,98874.98
2022-08-23T19:46:21.426Z,98880.04
2022-08-23T19:51:33.358Z,98887.48
2022-08-23T19:57:05.914Z,98884.88
2022-08-23T20:02:17.129Z,98887.75
2022-08-23T20:07:23.191Z,98888.65
2022-08-23T20:12:34.130Z,98885.23
2022-08-23T20:17:44.888Z,98880.81
2022-08-23T20:23:20.500Z,98889.60
2022-08-23T20:29:18.242Z,98893.85
2022-08-23T20:34:52.503Z,98894.02
2022-08-23T20:40:26.299Z,98902.34
2022-08-23T20:46:09.289Z,98900.74
2022-08-23T20:51:38.553Z,98894.34
2022-08-23T20:56:54.121Z,98889.52
2022-08-23T21:02:28.296Z,98892.66
2022-08-23T21:07:40.896Z,98897.42
2022-08-23T21:13:17.471Z,98894.23
2022-08-23T21:18:42.247Z,98899.67
2022-08-23T21:24:12.217Z,98891.48
2022-08-23T21:29:43.594Z,98888.25
2022-08-23T21:35:03.374Z,98885.09
2022-08-23T21:40:21.609Z,98876.29
2022-08-23T21:45:53.104Z,98884.12
2022-08-23T21:51:31.590Z,98874.69
2022-08-23T21:56:52.296Z,98867.42
2022-08-23T22:02:32.761Z,98866.63
2022-08-23T22:08:17.072Z,98865.64
2022-08-23T22:13:51.819Z,98862.98
2022-08-23T22:19:19.899Z,98866.81
2022-08-23T22:24:43.177Z,98862.73
2022-08-23T22:29:53.575Z,98851.29
2022-08-23T22:35:32.760Z,98854.20
2022-08-23T22:41:03.149Z,98854.40
2022-08-23T22:46:20.352Z,98854.02
2022-08-23T22:51:55.087Z,98846.98
2022-08-23T22:57:14.095Z,98852.48
2022-08-23T23:02:32.441Z,98850.61
2022-08-23T23:07:56.481Z,98855.77
2022-08-23T23:13:40.161Z,98858.51
2022-08-23T23:19:25.209Z,98857.38
2022-08-23T23:25:18.101Z,98856.81
2022-08-23T23:30:35.201Z,98866.94
2022-08-23T23:36:11.922Z,98865.23
2022-08-23T23:42:00.385Z,98863.20
2022-08-23T23:47:18.349Z,98854.57
2022-08-23T23:52:58.823Z,98852.67
2022-08-23T23:58:21.723Z,98851.82
